sensor_id;sensor_type;location;lat;lon;timestamp;pressure;altitude;pressure_sealevel;temperature;humidity
75604;BME280;64187;51.010;13.792;2023-10-13T00:00:08;100191.19;;;15.84;92.96
75604;BME280;64187;51.010;13.792;2023-10-13T00:05:25;100188.41;;;15.94;93.36
75604;BME280;64187;51.010;13.792;2023-10-13T00:10:24;100185.69;;;15.94;92.92
75604;BME280;64187;51.010;13.792;2023-10-13T00:15:24;100186.50;;;15.94;93.34
75604;BME280;64187;51.010;13.792;2023-10-13T00:20:26;100189.13;;;16.15;91.35
75604;BME280;64187;51.010;13.792;2023-10-13T00:25:36;100186.41;;;16.15;90.96
75604;BME280;64187;51.010;13.792;2023-10-13T00:30:42;100181.69;;;16.26;89.76
75604;BME280;64187;51.010;13.792;2023-10-13T00:35:49;100184.44;;;16.21;90.76
75604;BME280;64187;51.010;13.792;2023-10-13T00:40:50;100189.91;;;16.21;90.84
75604;BME280;64187;51.010;13.792;2023-10-13T00:45:54;100190.22;;;16.14;90.23
75604;BME280;64187;51.010;13.792;2023-10-13T00:50:58;100196.22;;;16.16;90.32
75604;BME280;64187;51.010;13.792;2023-10-13T00:56:02;100196.50;;;16.09;91.59
75604;BME280;64187;51.010;13.792;2023-10-13T01:01:06;100191.53;;;16.22;90.47
75604;BME280;64187;51.010;13.792;2023-10-13T01:06:17;100198.44;;;16.09;92.18
75604;BME280;64187;51.010;13.792;2023-10-13T01:11:18;100191.84;;;16.15;92.16
75604;BME280;64187;51.010;13.792;2023-10-13T01:16:19;100195.69;;;16.09;91.86
75604;BME280;64187;51.010;13.792;2023-10-13T01:21:22;100191.28;;;16.18;91.37
75604;BME280;64187;51.010;13.792;2023-10-13T01:26:26;100192.16;;;16.08;91.94
75604;BME280;64187;51.010;13.792;2023-10-13T01:31:26;100202.25;;;16.13;92.10
75604;BME280;64187;51.010;13.792;2023-10-13T01:36:29;100195.13;;;16.12;92.46
75604;BME280;64187;51.010;13.792;2023-10-13T01:41:35;100191.38;;;16.03;93.40
75604;BME280;64187;51.010;13.792;2023-10-13T01:46:36;100196.00;;;16.07;93.47
75604;BME280;64187;51.010;13.792;2023-10-13T01:51:35;100194.84;;;16.13;93.21
75604;BME280;64187;51.010;13.792;2023-10-13T01:56:39;100196.50;;;16.09;93.50
75604;BME280;64187;51.010;13.792;2023-10-13T02:01:44;100196.75;;;16.18;92.92
75604;BME280;64187;51.010;13.792;2023-10-13T02:06:43;100192.63;;;16.21;93.58
75604;BME280;64187;51.010;13.792;2023-10-13T02:11:44;100188.38;;;15.99;95.10
75604;BME280;64187;51.010;13.792;2023-10-13T02:16:46;100197.34;;;16.10;94.05
75604;BME280;64187;51.010;13.792;2023-10-13T02:21:46;100191.03;;;16.14;94.02
75604;BME280;64187;51.010;13.792;2023-10-13T02:26:57;100187.81;;;16.02;94.91
75604;BME280;64187;51.010;13.792;2023-10-13T02:32:12;100183.19;;;16.03;95.76
75604;BME280;64187;51.010;13.792;2023-10-13T02:37:29;100181.81;;;16.05;95.34
75604;BME280;64187;51.010;13.792;2023-10-13T02:42:28;100169.75;;;16.11;95.25
75604;BME280;64187;51.010;13.792;2023-10-13T02:47:27;100158.59;;;16.08;96.00
75604;BME280;64187;51.010;13.792;2023-10-13T02:52:26;100153.25;;;16.27;94.54
75604;BME280;64187;51.010;13.792;2023-10-13T02:57:26;100163.66;;;16.25;94.67
75604;BME280;64187;51.010;13.792;2023-10-13T03:02:25;100163.56;;;16.40;94.41
75604;BME280;64187;51.010;13.792;2023-10-13T03:07:25;100158.03;;;16.45;93.42
75604;BME280;64187;51.010;13.792;2023-10-13T03:12:28;100156.75;;;16.38;94.33
75604;BME280;64187;51.010;13.792;2023-10-13T03:17:32;100149.09;;;16.34;94.34
75604;BME280;64187;51.010;13.792;2023-10-13T03:22:34;100160.06;;;16.29;94.37
75604;BME280;64187;51.010;13.792;2023-10-13T03:27:34;100157.06;;;16.31;93.92
75604;BME280;64187;51.010;13.792;2023-10-13T03:33:02;100123.56;;;16.20;93.07
75604;BME280;64187;51.010;13.792;2023-10-13T03:38:05;100112.44;;;16.41;91.30
75604;BME280;64187;51.010;13.792;2023-10-13T03:43:15;100115.63;;;16.19;93.38
75604;BME280;64187;51.010;13.792;2023-10-13T03:48:20;100111.31;;;16.12;93.30
75604;BME280;64187;51.010;13.792;2023-10-13T03:53:26;100106.94;;;16.11;93.37
75604;BME280;64187;51.010;13.792;2023-10-13T03:58:25;100111.25;;;16.23;92.12
75604;BME280;64187;51.010;13.792;2023-10-13T04:03:25;100084.06;;;16.07;93.18
75604;BME280;64187;51.010;13.792;2023-10-13T04:08:32;100104.91;;;15.93;94.15
75604;BME280;64187;51.010;13.792;2023-10-13T04:13:47;100103.75;;;15.99;94.01
75604;BME280;64187;51.010;13.792;2023-10-13T04:19:08;100098.97;;;15.81;95.35
75604;BME280;64187;51.010;13.792;2023-10-13T04:24:10;100099.75;;;16.55;96.73
75604;BME280;64187;51.010;13.792;2023-10-13T04:29:15;100095.31;;;17.17;89.16
75604;BME280;64187;51.010;13.792;2023-10-13T04:34:26;100091.44;;;17.18;87.91
75604;BME280;64187;51.010;13.792;2023-10-13T04:39:27;100087.66;;;17.38;85.43
75604;BME280;64187;51.010;13.792;2023-10-13T04:44:34;100066.81;;;17.42;84.38
75604;BME280;64187;51.010;13.792;2023-10-13T04:49:51;100073.75;;;17.54;83.67
75604;BME280;64187;51.010;13.792;2023-10-13T04:54:51;100078.72;;;17.71;82.35
75604;BME280;64187;51.010;13.792;2023-10-13T04:59:53;100075.69;;;17.72;82.27
75604;BME280;64187;51.010;13.792;2023-10-13T05:05:12;100068.53;;;16.90;86.25
75604;BME280;64187;51.010;13.792;2023-10-13T05:10:17;100075.34;;;16.34;89.80
75604;BME280;64187;51.010;13.792;2023-10-13T05:15:42;100068.88;;;16.25;90.56
75604;BME280;64187;51.010;13.792;2023-10-13T05:21:00;100079.06;;;16.14;92.12
75604;BME280;64187;51.010;13.792;2023-10-13T05:26:18;100077.44;;;16.13;92.08
75604;BME280;64187;51.010;13.792;2023-10-13T05:31:36;100090.53;;;15.72;95.29
75604;BME280;64187;51.010;13.792;2023-10-13T05:36:54;100094.56;;;15.85;94.64
75604;BME280;64187;51.010;13.792;2023-10-13T05:42:11;100104.13;;;15.82;95.32
75604;BME280;64187;51.010;13.792;2023-10-13T05:47:29;100112.53;;;15.91;94.61
75604;BME280;64187;51.010;13.792;2023-10-13T05:52:37;100119.31;;;15.99;94.13
75604;BME280;64187;51.010;13.792;2023-10-13T05:57:54;100108.25;;;16.19;92.70
75604;BME280;64187;51.010;13.792;2023-10-13T06:03:12;100113.16;;;16.17;92.87
75604;BME280;64187;51.010;13.792;2023-10-13T06:08:29;100111.72;;;16.30;91.63
75604;BME280;64187;51.010;13.792;2023-10-13T06:13:48;100114.47;;;16.30;91.53
75604;BME280;64187;51.010;13.792;2023-10-13T06:19:05;100111.66;;;16.40;90.77
75604;BME280;64187;51.010;13.792;2023-10-13T06:24:23;100121.66;;;16.50;90.17
75604;BME280;64187;51.010;13.792;2023-10-13T06:29:41;100116.13;;;16.60;89.84
75604;BME280;64187;51.010;13.792;2023-10-13T06:34:39;100123.69;;;16.68;89.30
75604;BME280;64187;51.010;13.792;2023-10-13T06:39:44;100116.25;;;16.74;89.27
75604;BME280;64187;51.010;13.792;2023-10-13T06:44:46;100114.41;;;16.64;90.75
75604;BME280;64187;51.010;13.792;2023-10-13T06:49:45;100100.00;;;16.88;88.92
75604;BME280;64187;51.010;13.792;2023-10-13T06:54:50;100098.97;;;17.08;87.81
75604;BME280;64187;51.010;13.792;2023-10-13T06:59:49;100101.59;;;17.18;87.65
75604;BME280;64187;51.010;13.792;2023-10-13T07:04:48;100104.66;;;17.35;86.25
75604;BME280;64187;51.010;13.792;2023-10-13T07:09:56;100099.78;;;17.32;86.81
75604;BME280;64187;51.010;13.792;2023-10-13T07:14:57;100100.91;;;17.50;85.61
75604;BME280;64187;51.010;13.792;2023-10-13T07:20:14;100094.34;;;17.70;84.69
75604;BME280;64187;51.010;13.792;2023-10-13T07:25:14;100096.69;;;17.82;84.97
75604;BME280;64187;51.010;13.792;2023-10-13T07:30:22;100086.31;;;17.98;83.69
75604;BME280;64187;51.010;13.792;2023-10-13T07:35:25;100081.19;;;18.10;83.39
75604;BME280;64187;51.010;13.792;2023-10-13T07:40:29;100076.06;;;18.03;83.58
75604;BME280;64187;51.010;13.792;2023-10-13T07:45:28;100076.31;;;18.40;81.90
75604;BME280;64187;51.010;13.792;2023-10-13T07:50:37;100067.47;;;18.43;81.69
75604;BME280;64187;51.010;13.792;2023-10-13T07:55:36;100067.38;;;18.48;82.19
75604;BME280;64187;51.010;13.792;2023-10-13T08:00:38;100060.63;;;18.59;81.56
75604;BME280;64187;51.010;13.792;2023-10-13T08:05:37;100051.06;;;18.70;80.49
75604;BME280;64187;51.010;13.792;2023-10-13T08:10:57;100054.56;;;19.18;79.14
75604;BME280;64187;51.010;13.792;2023-10-13T08:16:01;100050.16;;;19.44;78.17
75604;BME280;64187;51.010;13.792;2023-10-13T08:21:07;100034.13;;;19.60;77.04
75604;BME280;64187;51.010;13.792;2023-10-13T08:26:14;100041.97;;;19.67;77.20
75604;BME280;64187;51.010;13.792;2023-10-13T08:31:32;100042.19;;;19.70;77.39
75604;BME280;64187;51.010;13.792;2023-10-13T08:36:40;100034.28;;;19.91;77.17
75604;BME280;64187;51.010;13.792;2023-10-13T08:41:41;100035.84;;;20.06;76.66
75604;BME280;64187;51.010;13.792;2023-10-13T08:46:52;100018.22;;;20.30;74.34
75604;BME280;64187;51.010;13.792;2023-10-13T08:52:05;100022.25;;;20.55;71.89
75604;BME280;64187;51.010;13.792;2023-10-13T08:57:29;100021.47;;;20.63;71.97
75604;BME280;64187;51.010;13.792;2023-10-13T09:02:32;100022.00;;;20.74;71.81
75604;BME280;64187;51.010;13.792;2023-10-13T09:07:50;100014.00;;;20.55;73.10
75604;BME280;64187;51.010;13.792;2023-10-13T09:13:00;100018.06;;;20.57;72.84
75604;BME280;64187;51.010;13.792;2023-10-13T09:17:59;100008.13;;;20.48;73.05
75604;BME280;64187;51.010;13.792;2023-10-13T09:23:15;100000.81;;;20.43;73.26
75604;BME280;64187;51.010;13.792;2023-10-13T09:28:27;100001.44;;;20.40;73.39
75604;BME280;64187;51.010;13.792;2023-10-13T09:33:28;100000.84;;;20.52;72.77
75604;BME280;64187;51.010;13.792;2023-10-13T09:38:36;99999.69;;;20.75;73.34
75604;BME280;64187;51.010;13.792;2023-10-13T09:43:39;100004.38;;;20.83;72.26
75604;BME280;64187;51.010;13.792;2023-10-13T09:48:46;99996.13;;;20.75;72.92
75604;BME280;64187;51.010;13.792;2023-10-13T09:53:58;99997.03;;;20.61;73.75
75604;BME280;64187;51.010;13.792;2023-10-13T09:59:08;100005.13;;;20.58;74.19
75604;BME280;64187;51.010;13.792;2023-10-13T10:04:14;99992.34;;;20.31;76.74
75604;BME280;64187;51.010;13.792;2023-10-13T10:09:17;99994.09;;;20.27;76.42
75604;BME280;64187;51.010;13.792;2023-10-13T10:20:01;99980.97;;;20.23;77.70
75604;BME280;64187;51.010;13.792;2023-10-13T10:25:06;99966.78;;;20.30;76.63
75604;BME280;64187;51.010;13.792;2023-10-13T10:30:06;99962.25;;;20.26;77.71
75604;BME280;64187;51.010;13.792;2023-10-13T10:35:11;99956.38;;;20.18;76.24
75604;BME280;64187;51.010;13.792;2023-10-13T10:40:17;99947.06;;;20.37;74.68
75604;BME280;64187;51.010;13.792;2023-10-13T10:45:47;99946.91;;;20.73;71.71
75604;BME280;64187;51.010;13.792;2023-10-13T10:50:54;99933.31;;;20.68;71.77
75604;BME280;64187;51.010;13.792;2023-10-13T10:55:53;99921.84;;;20.83;71.45
75604;BME280;64187;51.010;13.792;2023-10-13T11:01:04;99917.84;;;20.98;70.28
75604;BME280;64187;51.010;13.792;2023-10-13T11:06:12;99912.00;;;20.91;70.29
75604;BME280;64187;51.010;13.792;2023-10-13T11:11:28;99910.06;;;21.00;70.02
75604;BME280;64187;51.010;13.792;2023-10-13T11:16:29;99900.19;;;21.08;69.57
75604;BME280;64187;51.010;13.792;2023-10-13T11:21:33;99883.38;;;21.10;70.48
75604;BME280;64187;51.010;13.792;2023-10-13T11:26:36;99875.44;;;21.08;70.54
75604;BME280;64187;51.010;13.792;2023-10-13T11:31:48;99878.97;;;21.08;70.72
75604;BME280;64187;51.010;13.792;2023-10-13T11:36:56;99881.41;;;21.19;69.65
75604;BME280;64187;51.010;13.792;2023-10-13T11:41:57;99875.56;;;21.12;69.86
75604;BME280;64187;51.010;13.792;2023-10-13T11:46:56;99875.44;;;21.25;68.69
75604;BME280;64187;51.010;13.792;2023-10-13T11:51:55;99862.81;;;21.42;67.58
75604;BME280;64187;51.010;13.792;2023-10-13T11:57:08;99861.19;;;21.41;66.64
75604;BME280;64187;51.010;13.792;2023-10-13T12:02:07;99855.19;;;21.39;66.52
75604;BME280;64187;51.010;13.792;2023-10-13T12:07:10;99835.09;;;21.47;66.32
75604;BME280;64187;51.010;13.792;2023-10-13T12:12:28;99825.03;;;21.34;66.62
75604;BME280;64187;51.010;13.792;2023-10-13T12:17:29;99813.75;;;21.18;68.67
75604;BME280;64187;51.010;13.792;2023-10-13T12:22:33;99812.59;;;21.19;66.61
75604;BME280;64187;51.010;13.792;2023-10-13T12:27:38;99816.66;;;21.13;66.18
75604;BME280;64187;51.010;13.792;2023-10-13T12:32:51;99822.66;;;21.15;66.77
75604;BME280;64187;51.010;13.792;2023-10-13T12:38:05;99808.56;;;21.16;69.48
75604;BME280;64187;51.010;13.792;2023-10-13T12:43:05;99806.63;;;20.91;71.53
75604;BME280;64187;51.010;13.792;2023-10-13T12:48:22;99806.31;;;20.66;73.07
75604;BME280;64187;51.010;13.792;2023-10-13T12:53:39;99793.66;;;20.56;73.50
75604;BME280;64187;51.010;13.792;2023-10-13T12:58:38;99787.47;;;20.42;74.17
75604;BME280;64187;51.010;13.792;2023-10-13T13:03:38;99772.16;;;20.76;71.91
75604;BME280;64187;51.010;13.792;2023-10-13T13:08:44;99761.78;;;20.99;70.96
75604;BME280;64187;51.010;13.792;2023-10-13T13:13:43;99742.97;;;21.27;68.18
75604;BME280;64187;51.010;13.792;2023-10-13T13:18:45;99744.84;;;21.53;67.17
75604;BME280;64187;51.010;13.792;2023-10-13T13:23:44;99742.72;;;21.58;66.75
75604;BME280;64187;51.010;13.792;2023-10-13T13:28:47;99746.16;;;21.85;66.58
75604;BME280;64187;51.010;13.792;2023-10-13T13:33:49;99751.28;;;22.04;64.13
75604;BME280;64187;51.010;13.792;2023-10-13T13:38:48;99736.94;;;22.10;64.05
75604;BME280;64187;51.010;13.792;2023-10-13T13:43:50;99716.03;;;22.09;63.95
75604;BME280;64187;51.010;13.792;2023-10-13T13:48:54;99710.44;;;22.18;63.43
75604;BME280;64187;51.010;13.792;2023-10-13T13:54:00;99695.56;;;22.40;61.51
75604;BME280;64187;51.010;13.792;2023-10-13T13:59:03;99688.56;;;22.43;62.33
75604;BME280;64187;51.010;13.792;2023-10-13T14:04:06;99693.00;;;22.35;62.89
75604;BME280;64187;51.010;13.792;2023-10-13T14:09:06;99667.59;;;22.29;62.71
75604;BME280;64187;51.010;13.792;2023-10-13T14:14:23;99665.84;;;22.25;64.39
75604;BME280;64187;51.010;13.792;2023-10-13T14:19:25;99660.97;;;22.01;63.68
75604;BME280;64187;51.010;13.792;2023-10-13T14:24:27;99663.38;;;22.02;63.16
75604;BME280;64187;51.010;13.792;2023-10-13T14:29:26;99645.28;;;22.13;63.27
75604;BME280;64187;51.010;13.792;2023-10-13T14:34:26;99643.50;;;22.18;62.95
75604;BME280;64187;51.010;13.792;2023-10-13T14:39:25;99641.09;;;22.37;59.56
75604;BME280;64187;51.010;13.792;2023-10-13T14:44:28;99647.94;;;22.31;59.10
75604;BME280;64187;51.010;13.792;2023-10-13T14:49:27;99633.50;;;22.34;58.62
75604;BME280;64187;51.010;13.792;2023-10-13T14:54:27;99637.47;;;22.57;57.82
75604;BME280;64187;51.010;13.792;2023-10-13T14:59:32;99625.38;;;22.50;59.22
75604;BME280;64187;51.010;13.792;2023-10-13T15:04:37;99625.72;;;22.48;58.71
75604;BME280;64187;51.010;13.792;2023-10-13T15:09:36;99625.13;;;22.43;59.98
75604;BME280;64187;51.010;13.792;2023-10-13T15:14:39;99616.66;;;22.06;60.96
75604;BME280;64187;51.010;13.792;2023-10-13T15:19:41;99623.47;;;21.87;62.36
75604;BME280;64187;51.010;13.792;2023-10-13T15:24:42;99620.94;;;21.73;62.06
75604;BME280;64187;51.010;13.792;2023-10-13T15:29:56;99617.75;;;21.71;61.09
75604;BME280;64187;51.010;13.792;2023-10-13T15:34:58;99617.88;;;21.75;61.16
75604;BME280;64187;51.010;13.792;2023-10-13T15:39:58;99625.03;;;21.38;63.38
75604;BME280;64187;51.010;13.792;2023-10-13T15:45:02;99609.50;;;21.33;63.65
75604;BME280;64187;51.010;13.792;2023-10-13T15:50:08;99611.75;;;21.31;63.47
75604;BME280;64187;51.010;13.792;2023-10-13T15:55:15;99603.47;;;21.10;64.17
75604;BME280;64187;51.010;13.792;2023-10-13T16:00:16;99605.25;;;21.06;64.13
75604;BME280;64187;51.010;13.792;2023-10-13T16:05:31;99605.78;;;20.91;64.97
75604;BME280;64187;51.010;13.792;2023-10-13T16:10:33;99601.44;;;20.90;65.16
75604;BME280;64187;51.010;13.792;2023-10-13T16:15:35;99598.16;;;20.96;64.76
75604;BME280;64187;51.010;13.792;2023-10-13T16:20:39;99589.16;;;20.78;64.84
75604;BME280;64187;51.010;13.792;2023-10-13T16:25:39;99593.88;;;20.69;65.90
75604;BME280;64187;51.010;13.792;2023-10-13T16:30:42;99597.72;;;20.77;66.35
75604;BME280;64187;51.010;13.792;2023-10-13T16:35:42;99593.56;;;20.62;67.34
75604;BME280;64187;51.010;13.792;2023-10-13T16:40:45;99587.78;;;20.55;67.60
75604;BME280;64187;51.010;13.792;2023-10-13T16:45:44;99585.50;;;20.39;68.20
75604;BME280;64187;51.010;13.792;2023-10-13T16:50:43;99590.22;;;20.30;68.20
75604;BME280;64187;51.010;13.792;2023-10-13T16:55:42;99589.56;;;20.16;68.93
75604;BME280;64187;51.010;13.792;2023-10-13T17:00:42;99585.84;;;19.94;69.62
75604;BME280;64187;51.010;13.792;2023-10-13T17:05:50;99575.66;;;19.95;68.53
75604;BME280;64187;51.010;13.792;2023-10-13T17:10:49;99575.34;;;19.96;67.99
75604;BME280;64187;51.010;13.792;2023-10-13T17:15:48;99565.84;;;20.03;65.81
75604;BME280;64187;51.010;13.792;2023-10-13T17:20:47;99567.44;;;20.12;64.80
75604;BME280;64187;51.010;13.792;2023-10-13T17:25:46;99566.00;;;20.15;63.72
75604;BME280;64187;51.010;13.792;2023-10-13T17:30:45;99555.00;;;20.15;64.56
75604;BME280;64187;51.010;13.792;2023-10-13T17:35:44;99565.34;;;20.18;64.15
75604;BME280;64187;51.010;13.792;2023-10-13T17:40:44;99558.69;;;20.19;63.48
75604;BME280;64187;51.010;13.792;2023-10-13T17:45:43;99548.81;;;20.35;63.25
75604;BME280;64187;51.010;13.792;2023-10-13T17:50:43;99550.09;;;20.29;63.16
75604;BME280;64187;51.010;13.792;2023-10-13T17:55:42;99550.44;;;20.19;63.92
75604;BME280;64187;51.010;13.792;2023-10-13T18:00:41;99539.47;;;20.28;62.70
75604;BME280;64187;51.010;13.792;2023-10-13T18:05:44;99540.13;;;20.16;62.88
75604;BME280;64187;51.010;13.792;2023-10-13T18:10:51;99529.59;;;20.18;60.40
75604;BME280;64187;51.010;13.792;2023-10-13T18:15:50;99529.44;;;20.23;60.86
75604;BME280;64187;51.010;13.792;2023-10-13T18:21:00;99516.13;;;20.42;55.54
75604;BME280;64187;51.010;13.792;2023-10-13T18:26:00;99509.41;;;20.78;52.94
75604;BME280;64187;51.010;13.792;2023-10-13T18:31:02;99515.47;;;20.93;51.58
75604;BME280;64187;51.010;13.792;2023-10-13T18:41:12;99496.16;;;21.01;51.27
75604;BME280;64187;51.010;13.792;2023-10-13T18:46:14;99498.31;;;20.96;51.72
75604;BME280;64187;51.010;13.792;2023-10-13T18:51:17;99478.44;;;20.90;52.25
75604;BME280;64187;51.010;13.792;2023-10-13T18:56:19;99470.28;;;20.73;53.17
75604;BME280;64187;51.010;13.792;2023-10-13T19:01:26;99474.16;;;20.72;52.50
75604;BME280;64187;51.010;13.792;2023-10-13T19:06:30;99467.03;;;20.71;51.74
75604;BME280;64187;51.010;13.792;2023-10-13T19:11:30;99471.06;;;20.73;51.99
75604;BME280;64187;51.010;13.792;2023-10-13T19:16:33;99473.22;;;20.68;53.80
75604;BME280;64187;51.010;13.792;2023-10-13T19:21:34;99473.06;;;20.64;55.69
75604;BME280;64187;51.010;13.792;2023-10-13T19:26:36;99471.69;;;20.32;57.60
75604;BME280;64187;51.010;13.792;2023-10-13T19:31:36;99463.66;;;20.18;58.20
75604;BME280;64187;51.010;13.792;2023-10-13T19:36:35;99465.78;;;20.04;58.16
75604;BME280;64187;51.010;13.792;2023-10-13T19:41:34;99455.16;;;19.93;56.07
75604;BME280;64187;51.010;13.792;2023-10-13T19:46:33;99443.94;;;20.16;54.41
75604;BME280;64187;51.010;13.792;2023-10-13T19:51:35;99433.44;;;20.18;53.24
75604;BME280;64187;51.010;13.792;2023-10-13T19:56:34;99431.16;;;20.20;52.66
75604;BME280;64187;51.010;13.792;2023-10-13T20:01:33;99425.44;;;20.34;51.48
75604;BME280;64187;51.010;13.792;2023-10-13T20:06:34;99413.94;;;20.40;50.63
75604;BME280;64187;51.010;13.792;2023-10-13T20:11:33;99405.88;;;20.35;50.37
75604;BME280;64187;51.010;13.792;2023-10-13T20:16:34;99406.50;;;20.41;50.30
75604;BME280;64187;51.010;13.792;2023-10-13T20:21:32;99402.94;;;20.40;49.34
75604;BME280;64187;51.010;13.792;2023-10-13T20:26:34;99402.91;;;20.58;48.70
75604;BME280;64187;51.010;13.792;2023-10-13T20:31:48;99386.88;;;20.60;48.64
75604;BME280;64187;51.010;13.792;2023-10-13T20:36:48;99375.19;;;20.63;48.63
75604;BME280;64187;51.010;13.792;2023-10-13T20:41:47;99365.63;;;20.90;46.90
75604;BME280;64187;51.010;13.792;2023-10-13T20:46:47;99368.44;;;21.23;45.87
75604;BME280;64187;51.010;13.792;2023-10-13T20:51:46;99354.63;;;21.32;44.72
75604;BME280;64187;51.010;13.792;2023-10-13T20:56:45;99359.91;;;21.37;45.15
75604;BME280;64187;51.010;13.792;2023-10-13T21:01:44;99348.09;;;21.37;44.97
75604;BME280;64187;51.010;13.792;2023-10-13T21:06:43;99342.66;;;21.28;45.07
75604;BME280;64187;51.010;13.792;2023-10-13T21:11:43;99344.41;;;21.33;45.20
75604;BME280;64187;51.010;13.792;2023-10-13T21:16:42;99330.97;;;21.52;43.73
75604;BME280;64187;51.010;13.792;2023-10-13T21:21:41;99311.47;;;21.57;43.86
75604;BME280;64187;51.010;13.792;2023-10-13T21:26:40;99305.75;;;21.62;42.90
75604;BME280;64187;51.010;13.792;2023-10-13T21:31:39;99296.81;;;21.78;42.97
75604;BME280;64187;51.010;13.792;2023-10-13T21:36:38;99286.25;;;21.80;42.92
75604;BME280;64187;51.010;13.792;2023-10-13T21:41:38;99279.13;;;21.91;42.17
75604;BME280;64187;51.010;13.792;2023-10-13T21:46:37;99283.53;;;22.04;42.04
75604;BME280;64187;51.010;13.792;2023-10-13T21:51:37;99271.00;;;22.07;41.66
75604;BME280;64187;51.010;13.792;2023-10-13T21:56:35;99266.78;;;22.22;41.43
75604;BME280;64187;51.010;13.792;2023-10-13T22:01:37;99256.63;;;22.13;41.82
75604;BME280;64187;51.010;13.792;2023-10-13T22:06:42;99248.34;;;22.13;41.66
75604;BME280;64187;51.010;13.792;2023-10-13T22:11:45;99237.69;;;22.12;41.38
75604;BME280;64187;51.010;13.792;2023-10-13T22:16:44;99236.44;;;22.09;41.54
75604;BME280;64187;51.010;13.792;2023-10-13T22:21:43;99240.78;;;21.86;41.75
75604;BME280;64187;51.010;13.792;2023-10-13T22:26:42;99236.91;;;21.87;42.49
75604;BME280;64187;51.010;13.792;2023-10-13T22:31:44;99224.50;;;21.93;41.50
75604;BME280;64187;51.010;13.792;2023-10-13T22:36:43;99228.50;;;21.71;42.41
75604;BME280;64187;51.010;13.792;2023-10-13T22:42:02;99223.13;;;21.50;43.92
75604;BME280;64187;51.010;13.792;2023-10-13T22:47:01;99217.88;;;21.36;44.08
75604;BME280;64187;51.010;13.792;2023-10-13T22:52:01;99220.06;;;21.30;44.56
75604;BME280;64187;51.010;13.792;2023-10-13T22:57:00;99218.91;;;21.19;43.71
75604;BME280;64187;51.010;13.792;2023-10-13T23:01:59;99206.53;;;21.38;43.54
75604;BME280;64187;51.010;13.792;2023-10-13T23:06:58;99206.06;;;21.23;43.97
75604;BME280;64187;51.010;13.792;2023-10-13T23:11:58;99204.91;;;21.12;44.03
75604;BME280;64187;51.010;13.792;2023-10-13T23:17:03;99194.91;;;21.07;43.74
75604;BME280;64187;51.010;13.792;2023-10-13T23:22:03;99189.69;;;20.94;44.61
75604;BME280;64187;51.010;13.792;2023-10-13T23:27:09;99182.09;;;20.78;45.07
75604;BME280;64187;51.010;13.792;2023-10-13T23:32:08;99167.19;;;20.79;45.28
75604;BME280;64187;51.010;13.792;2023-10-13T23:37:07;99163.19;;;20.89;44.71
75604;BME280;64187;51.010;13.792;2023-10-13T23:42:10;99160.59;;;20.93;44.59
75604;BME280;64187;51.010;13.792;2023-10-13T23:47:20;99157.41;;;21.03;44.16
75604;BME280;64187;51.010;13.792;2023-10-13T23:52:26;99157.38;;;20.91;44.80
75604;BME280;64187;51.010;13.792;2023-10-13T23:57:31;99149.53;;;20.80;45.47
